createdAt,value
2022-09-30T00:03:16.450Z,96.01
2022-09-30T00:06:59.261Z,96.37
2022-09-30T00:10:41.919Z,96.85
2022-09-30T00:14:28.863Z,97.00
2022-09-30T00:18:11.607Z,97.30
2022-09-30T00:21:54.300Z,97.45
2022-09-30T00:25:36.997Z,97.60
2022-09-30T00:29:19.740Z,97.90
2022-09-30T00:33:03.945Z,97.70
2022-09-30T00:36:48.712Z,97.58
2022-09-30T00:40:31.519Z,97.45
2022-09-30T00:44:50.963Z,97.75
2022-09-30T00:48:37.384Z,97.64
2022-09-30T00:52:20.748Z,97.46
2022-09-30T00:56:05.163Z,97.75
2022-09-30T00:59:49.243Z,97.17
2022-09-30T01:03:33.098Z,96.57
2022-09-30T01:07:17.532Z,96.79
2022-09-30T01:11:03.382Z,96.41
2022-09-30T01:14:51.183Z,96.58
2022-09-30T01:18:44.144Z,97.16
2022-09-30T01:22:41.905Z,96.84
2022-09-30T01:26:41.685Z,97.05
2022-09-30T01:30:36.181Z,96.67
2022-09-30T01:34:25.421Z,96.48
2022-09-30T01:38:14.866Z,95.96
2022-09-30T01:42:06.473Z,95.37
2022-09-30T01:45:54.275Z,94.65
2022-09-30T01:49:41.525Z,94.11
2022-09-30T01:53:30.312Z,93.58
2022-09-30T01:57:19.055Z,93.85
2022-09-30T02:01:07.230Z,94.21
2022-09-30T02:04:53.236Z,93.98
2022-09-30T02:08:41.324Z,94.37
2022-09-30T02:12:27.423Z,95.19
2022-09-30T02:16:15.220Z,95.59
2022-09-30T02:20:00.638Z,96.17
2022-09-30T02:23:45.512Z,96.21
2022-09-30T02:27:41.577Z,96.32
2022-09-30T02:31:26.712Z,96.44
2022-09-30T02:35:12.077Z,96.77
2022-09-30T02:39:00.554Z,96.53
2022-09-30T02:42:44.735Z,96.19
2022-09-30T02:46:36.033Z,96.36
2022-09-30T02:50:29.112Z,96.58
2022-09-30T02:54:18.483Z,96.13
2022-09-30T02:58:09.009Z,96.04
2022-09-30T03:01:53.216Z,95.59
2022-09-30T03:05:36.298Z,95.51
2022-09-30T03:09:19.141Z,95.16
2022-09-30T03:13:14.278Z,95.12
2022-09-30T03:17:26.073Z,94.62
2022-09-30T03:21:15.452Z,94.40
2022-09-30T03:25:17.217Z,94.35
2022-09-30T03:29:08.236Z,94.38
2022-09-30T03:33:01.730Z,94.57
2022-09-30T03:36:48.343Z,94.58
2022-09-30T03:40:37.386Z,94.43
2022-09-30T03:44:45.570Z,94.86
2022-09-30T03:48:30.412Z,94.75
2022-09-30T03:52:14.806Z,94.46
2022-09-30T03:55:57.638Z,94.00
2022-09-30T03:59:40.348Z,93.62
2022-09-30T04:03:23.576Z,93.32
2022-09-30T04:07:08.060Z,93.64
2022-09-30T04:10:50.741Z,93.46
2022-09-30T04:14:33.720Z,94.33
2022-09-30T04:18:16.423Z,94.94
2022-09-30T04:21:59.150Z,95.56
2022-09-30T04:25:43.185Z,95.72
2022-09-30T04:29:25.867Z,95.85
2022-09-30T04:33:08.554Z,96.21
2022-09-30T04:36:51.302Z,96.12
2022-09-30T04:40:36.817Z,96.45
2022-09-30T04:44:21.456Z,96.37
2022-09-30T04:48:04.212Z,96.34
2022-09-30T04:51:46.865Z,96.21
2022-09-30T04:55:29.504Z,96.05
2022-09-30T04:59:12.206Z,96.31
2022-09-30T05:02:56.252Z,96.12
2022-09-30T05:06:39.802Z,96.23
2022-09-30T05:10:24.800Z,96.77
2022-09-30T05:14:09.050Z,97.33
2022-09-30T05:17:51.896Z,97.91
2022-09-30T05:21:36.008Z,98.47
2022-09-30T05:25:19.021Z,98.83
2022-09-30T05:29:01.714Z,99.03
2022-09-30T05:32:44.449Z,99.91
2022-09-30T05:36:27.127Z,99.11
2022-09-30T05:40:13.035Z,98.14
2022-09-30T05:43:55.755Z,98.29
2022-09-30T05:47:39.188Z,100.00
2022-09-30T05:51:22.247Z,100.00
2022-09-30T05:55:05.405Z,100.00
2022-09-30T05:58:50.878Z,100.00
2022-09-30T06:02:33.757Z,100.00
2022-09-30T06:06:16.960Z,99.07
2022-09-30T06:09:59.666Z,98.15
2022-09-30T06:13:43.300Z,97.93
2022-09-30T06:17:29.799Z,97.35
2022-09-30T06:21:14.424Z,94.11
2022-09-30T06:24:57.137Z,91.25
2022-09-30T06:28:40.064Z,89.55
2022-09-30T06:32:23.080Z,88.56
2022-09-30T06:36:07.348Z,88.01
2022-09-30T06:39:50.425Z,89.12
2022-09-30T06:43:43.139Z,90.19
2022-09-30T06:47:33.333Z,89.65
2022-09-30T06:51:17.453Z,89.11
2022-09-30T06:55:00.354Z,87.94
2022-09-30T06:58:45.258Z,87.98
2022-09-30T07:02:29.105Z,88.34
2022-09-30T07:06:14.344Z,87.19
2022-09-30T07:09:59.819Z,86.21
2022-09-30T07:13:43.373Z,85.56
2022-09-30T07:17:26.071Z,85.68
2022-09-30T07:21:08.871Z,86.67
2022-09-30T07:24:51.579Z,83.39
2022-09-30T07:28:39.326Z,82.12
2022-09-30T07:32:23.200Z,81.38
2022-09-30T07:36:08.328Z,80.72
2022-09-30T07:39:51.275Z,81.07
2022-09-30T07:43:38.953Z,80.89
2022-09-30T07:47:21.703Z,79.93
2022-09-30T07:51:04.484Z,77.16
2022-09-30T07:54:50.586Z,78.40
2022-09-30T07:58:38.493Z,77.65
2022-09-30T08:02:21.337Z,78.36
2022-09-30T08:06:08.419Z,78.84
2022-09-30T08:09:51.533Z,78.66
2022-09-30T08:13:34.621Z,76.85
2022-09-30T08:17:18.709Z,77.83
2022-09-30T08:21:04.583Z,76.56
2022-09-30T08:24:47.257Z,75.79
2022-09-30T08:28:31.336Z,74.40
2022-09-30T08:32:14.161Z,74.45
2022-09-30T08:35:58.296Z,73.83
2022-09-30T08:39:42.411Z,72.38
2022-09-30T08:43:30.047Z,69.05
2022-09-30T08:47:29.531Z,68.52
2022-09-30T08:51:27.757Z,69.02
2022-09-30T08:55:17.651Z,66.61
2022-09-30T08:59:06.121Z,66.84
2022-09-30T09:02:52.143Z,67.33
2022-09-30T09:06:42.542Z,67.03
2022-09-30T09:10:31.174Z,67.55
2022-09-30T09:14:26.988Z,68.26
2022-09-30T09:18:30.543Z,67.39
2022-09-30T09:22:15.142Z,66.68
2022-09-30T09:25:58.162Z,66.66
2022-09-30T09:30:08.919Z,66.73
2022-09-30T09:33:54.918Z,67.02
2022-09-30T09:38:01.315Z,67.37
2022-09-30T09:41:49.853Z,67.99
2022-09-30T09:46:18.838Z,67.48
2022-09-30T09:50:04.207Z,68.08
2022-09-30T09:53:52.243Z,67.82
2022-09-30T09:57:34.992Z,66.88
2022-09-30T10:01:32.815Z,66.48
2022-09-30T10:05:26.676Z,65.03
2022-09-30T10:09:23.776Z,64.38
2022-09-30T10:13:06.559Z,64.74
2022-09-30T10:16:49.568Z,65.03
2022-09-30T10:20:33.828Z,64.83
2022-09-30T10:24:28.885Z,65.11
2022-09-30T10:28:22.032Z,64.51
2022-09-30T10:32:08.146Z,63.38
2022-09-30T10:36:13.164Z,63.16
2022-09-30T10:40:01.466Z,63.50
2022-09-30T10:43:45.520Z,63.20
2022-09-30T10:47:31.294Z,63.58
2022-09-30T10:51:25.976Z,62.02
2022-09-30T10:55:29.322Z,61.42
2022-09-30T10:59:22.890Z,61.71
2022-09-30T11:03:13.089Z,61.33
2022-09-30T11:06:59.924Z,58.52
2022-09-30T11:10:48.482Z,57.38
2022-09-30T11:14:34.920Z,58.92
2022-09-30T11:18:21.098Z,58.64
2022-09-30T11:22:22.371Z,57.97
2022-09-30T11:26:09.819Z,57.62
2022-09-30T11:30:03.410Z,58.45
2022-09-30T11:33:59.170Z,59.36
2022-09-30T11:37:55.347Z,59.73
2022-09-30T11:41:41.425Z,60.18
2022-09-30T11:45:59.731Z,61.52
2022-09-30T11:49:52.825Z,62.11
2022-09-30T11:53:44.493Z,61.69
2022-09-30T11:57:33.701Z,61.44
2022-09-30T12:01:22.392Z,62.19
2022-09-30T12:05:08.688Z,63.04
2022-09-30T12:08:56.865Z,63.67
2022-09-30T12:12:41.083Z,64.45
2022-09-30T12:16:26.796Z,63.78
2022-09-30T12:20:17.006Z,63.22
2022-09-30T12:24:04.320Z,63.16
2022-09-30T12:27:51.008Z,62.38
2022-09-30T12:31:51.896Z,63.08
2022-09-30T12:36:08.147Z,62.65
2022-09-30T12:40:22.536Z,62.57
2022-09-30T12:44:29.635Z,62.41
2022-09-30T12:48:17.376Z,61.00
2022-09-30T12:52:05.236Z,59.60
2022-09-30T12:55:51.539Z,60.49
2022-09-30T12:59:38.118Z,60.39
2022-09-30T13:03:21.725Z,61.75
2022-09-30T13:07:13.236Z,62.97
2022-09-30T13:10:59.142Z,64.16
2022-09-30T13:14:44.265Z,61.72
2022-09-30T13:19:01.342Z,62.61
2022-09-30T13:22:44.362Z,62.28
2022-09-30T13:26:41.600Z,60.98
2022-09-30T13:30:40.066Z,59.46
2022-09-30T13:34:24.655Z,59.53
2022-09-30T13:38:16.884Z,60.48
2022-09-30T13:42:08.407Z,59.39
2022-09-30T13:45:54.447Z,59.89
2022-09-30T13:49:43.161Z,59.32
2022-09-30T13:53:30.080Z,59.61
2022-09-30T13:57:20.043Z,59.54
2022-09-30T14:01:08.383Z,59.33
2022-09-30T14:05:27.248Z,59.29
2022-09-30T14:09:25.033Z,59.15
2022-09-30T14:13:19.904Z,59.33
2022-09-30T14:17:15.621Z,60.17
2022-09-30T14:21:06.797Z,60.20
2022-09-30T14:24:51.389Z,59.16
2022-09-30T14:28:37.382Z,59.13
2022-09-30T14:32:29.020Z,59.18
2022-09-30T14:36:15.136Z,57.65
2022-09-30T14:39:57.887Z,58.06
2022-09-30T14:43:44.378Z,58.37
2022-09-30T14:47:28.475Z,58.58
2022-09-30T14:51:13.046Z,59.33
2022-09-30T14:54:57.967Z,60.40
2022-09-30T14:58:42.375Z,60.29
2022-09-30T15:02:25.114Z,60.70
2022-09-30T15:06:19.868Z,61.66
2022-09-30T15:10:02.968Z,62.20
2022-09-30T15:13:45.992Z,61.97
2022-09-30T15:17:30.744Z,62.22
2022-09-30T15:21:16.127Z,62.56
2022-09-30T15:24:59.706Z,62.47
2022-09-30T15:28:42.388Z,62.97
2022-09-30T15:32:50.256Z,63.38
2022-09-30T15:36:37.965Z,63.10
2022-09-30T15:40:40.720Z,63.02
2022-09-30T15:44:38.096Z,64.01
2022-09-30T15:48:38.088Z,65.53
2022-09-30T15:52:29.320Z,66.27
2022-09-30T15:56:18.525Z,65.85
2022-09-30T16:00:03.096Z,66.68
2022-09-30T16:03:55.569Z,66.55
2022-09-30T16:07:39.742Z,67.61
2022-09-30T16:11:25.055Z,68.83
2022-09-30T16:15:14.539Z,70.32
2022-09-30T16:18:58.619Z,69.97
2022-09-30T16:22:52.317Z,68.91
2022-09-30T16:26:35.353Z,68.64
2022-09-30T16:30:20.195Z,68.23
2022-09-30T16:34:03.091Z,68.64
2022-09-30T16:37:45.773Z,69.39
2022-09-30T16:41:29.816Z,69.60
2022-09-30T16:45:16.174Z,73.60
2022-09-30T16:48:58.809Z,75.02
2022-09-30T16:52:42.153Z,73.01
2022-09-30T16:56:26.866Z,72.71
2022-09-30T17:00:15.586Z,71.04
2022-09-30T17:03:58.835Z,72.05
2022-09-30T17:07:42.002Z,71.43
2022-09-30T17:11:26.880Z,70.76
2022-09-30T17:15:11.576Z,70.88
2022-09-30T17:18:54.458Z,71.06
2022-09-30T17:22:37.161Z,71.46
2022-09-30T17:26:19.941Z,72.09
2022-09-30T17:30:03.699Z,71.97
2022-09-30T17:33:47.918Z,71.22
2022-09-30T17:37:31.052Z,70.59
2022-09-30T17:41:33.096Z,70.14
2022-09-30T17:45:16.129Z,70.85
2022-09-30T17:49:00.213Z,71.03
2022-09-30T17:52:42.924Z,70.95
2022-09-30T17:56:25.574Z,70.66
2022-09-30T18:00:09.361Z,71.32
2022-09-30T18:03:53.439Z,71.48
2022-09-30T18:07:37.445Z,72.25
2022-09-30T18:11:27.410Z,72.74
2022-09-30T18:15:11.344Z,71.76
2022-09-30T18:18:54.074Z,71.05
2022-09-30T18:22:38.062Z,70.89
2022-09-30T18:26:20.903Z,71.35
2022-09-30T18:30:05.232Z,71.64
2022-09-30T18:34:17.403Z,70.62
2022-09-30T18:38:01.780Z,70.94
2022-09-30T18:41:45.966Z,71.32
2022-09-30T18:45:31.122Z,71.75
2022-09-30T18:49:14.954Z,72.30
2022-09-30T18:52:58.300Z,72.01
2022-09-30T18:56:44.077Z,72.45
2022-09-30T19:00:30.270Z,71.79
2022-09-30T19:04:23.066Z,71.11
2022-09-30T19:08:05.852Z,72.81
2022-09-30T19:11:51.401Z,73.52
2022-09-30T19:15:34.138Z,73.11
2022-09-30T19:19:29.459Z,73.29
2022-09-30T19:23:12.167Z,73.46
2022-09-30T19:26:56.235Z,73.42
2022-09-30T19:30:42.038Z,73.71
2022-09-30T19:34:54.587Z,73.21
2022-09-30T19:38:43.057Z,72.39
2022-09-30T19:42:30.057Z,71.59
2022-09-30T19:46:13.127Z,72.22
2022-09-30T19:49:59.472Z,73.03
2022-09-30T19:53:47.405Z,73.32
2022-09-30T19:57:34.520Z,73.74
2022-09-30T20:01:18.868Z,74.14
2022-09-30T20:05:05.337Z,74.54
2022-09-30T20:08:53.280Z,75.03
2022-09-30T20:12:37.351Z,74.98
2022-09-30T20:16:22.361Z,74.80
2022-09-30T20:20:23.039Z,74.75
2022-09-30T20:24:06.329Z,73.49
2022-09-30T20:27:52.620Z,72.85
2022-09-30T20:31:41.981Z,72.89
2022-09-30T20:35:24.884Z,73.03
2022-09-30T20:39:12.831Z,73.15
2022-09-30T20:43:01.864Z,73.41
2022-09-30T20:46:44.973Z,73.24
2022-09-30T20:50:38.464Z,73.59
2022-09-30T20:54:22.489Z,74.44
2022-09-30T20:58:08.125Z,74.74
2022-09-30T21:01:51.145Z,75.40
2022-09-30T21:05:34.801Z,75.76
2022-09-30T21:09:17.664Z,76.57
2022-09-30T21:13:01.161Z,77.45
2022-09-30T21:16:45.354Z,78.28
2022-09-30T21:20:29.305Z,78.57
2022-09-30T21:24:14.491Z,79.16
2022-09-30T21:27:57.333Z,79.92
2022-09-30T21:31:40.271Z,80.78
2022-09-30T21:35:24.418Z,81.18
2022-09-30T21:39:07.842Z,81.21
2022-09-30T21:42:50.489Z,81.39
2022-09-30T21:46:33.260Z,82.15
2022-09-30T21:50:36.797Z,82.73
2022-09-30T21:54:19.603Z,83.05
2022-09-30T21:58:02.255Z,82.48
2022-09-30T22:01:45.316Z,82.00
2022-09-30T22:05:40.124Z,82.51
2022-09-30T22:09:22.784Z,83.26
2022-09-30T22:13:05.410Z,83.73
2022-09-30T22:16:48.292Z,83.73
2022-09-30T22:20:52.946Z,83.62
2022-09-30T22:24:36.838Z,84.15
2022-09-30T22:28:19.564Z,84.76
2022-09-30T22:32:03.108Z,85.03
2022-09-30T22:36:13.029Z,85.31
2022-09-30T22:40:00.625Z,85.35
2022-09-30T22:43:43.959Z,84.57
2022-09-30T22:47:26.646Z,84.56
2022-09-30T22:51:16.995Z,84.26
2022-09-30T22:55:02.152Z,84.02
2022-09-30T22:58:46.743Z,84.95
2022-09-30T23:02:29.720Z,84.89
2022-09-30T23:06:14.429Z,85.31
2022-09-30T23:09:58.505Z,85.57
2022-09-30T23:13:41.657Z,85.59
2022-09-30T23:17:25.305Z,86.21
2022-09-30T23:21:11.176Z,86.03
2022-09-30T23:24:53.914Z,85.66
2022-09-30T23:28:37.932Z,86.38
2022-09-30T23:32:20.664Z,87.53
2022-09-30T23:36:12.652Z,88.10
2022-09-30T23:39:55.297Z,88.29
2022-09-30T23:43:39.615Z,88.29
2022-09-30T23:47:22.268Z,88.69
2022-09-30T23:51:13.102Z,88.95
2022-09-30T23:54:55.752Z,89.09
2022-09-30T23:58:40.016Z,88.56
